createdAt,value
2019-05-16T00:00:25.224Z,5.07
2019-05-16T00:02:59.084Z,5.04
2019-05-16T00:05:53.286Z,4.94
2019-05-16T00:08:30.988Z,4.87
2019-05-16T00:11:08.531Z,4.83
2019-05-16T00:13:41.589Z,4.80
2019-05-16T00:16:15.446Z,4.73
2019-05-16T00:18:49.042Z,4.60
2019-05-16T00:21:22.540Z,4.68
2019-05-16T00:23:55.785Z,4.74
2019-05-16T00:26:29.837Z,4.75
2019-05-16T00:29:08.023Z,4.73
2019-05-16T00:31:40.860Z,4.73
2019-05-16T00:34:15.209Z,4.75
2019-05-16T00:36:52.560Z,4.78
2019-05-16T00:39:27.965Z,4.81
2019-05-16T00:42:03.652Z,4.83
2019-05-16T00:44:38.737Z,4.92
2019-05-16T00:47:13.017Z,4.87
2019-05-16T00:49:47.811Z,4.81
2019-05-16T00:52:20.857Z,4.88
2019-05-16T00:54:53.901Z,4.93
2019-05-16T00:57:28.156Z,5.00
2019-05-16T01:00:03.269Z,5.04
2019-05-16T01:02:38.150Z,5.05
2019-05-16T01:05:14.373Z,4.97
2019-05-16T01:07:48.144Z,4.91
2019-05-16T01:10:22.919Z,4.85
2019-05-16T01:12:58.412Z,4.82
2019-05-16T01:15:55.022Z,4.82
2019-05-16T01:18:28.771Z,4.85
2019-05-16T01:21:04.371Z,4.85
2019-05-16T01:23:39.558Z,4.84
2019-05-16T01:26:12.843Z,4.81
2019-05-16T01:28:48.583Z,4.77
2019-05-16T01:31:21.370Z,4.73
2019-05-16T01:33:55.385Z,4.75
2019-05-16T01:36:36.608Z,4.68
2019-05-16T01:39:10.150Z,4.82
2019-05-16T01:41:42.731Z,5.05
2019-05-16T01:44:18.189Z,5.17
2019-05-16T01:46:51.151Z,5.27
2019-05-16T01:49:23.873Z,5.42
2019-05-16T01:51:57.905Z,5.55
2019-05-16T01:54:31.053Z,5.58
2019-05-16T01:57:03.767Z,5.62
2019-05-16T01:59:37.967Z,5.67
2019-05-16T02:02:10.744Z,5.74
2019-05-16T02:04:43.480Z,5.85
2019-05-16T02:07:16.042Z,5.89
2019-05-16T02:09:48.645Z,5.96
2019-05-16T02:12:21.265Z,6.05
2019-05-16T02:14:53.948Z,6.17
2019-05-16T02:17:28.818Z,6.28
2019-05-16T02:20:02.107Z,6.43
2019-05-16T02:22:35.662Z,6.58
2019-05-16T02:25:09.629Z,6.71
2019-05-16T02:27:48.849Z,6.79
2019-05-16T02:30:24.218Z,6.84
2019-05-16T02:32:56.990Z,6.80
2019-05-16T02:35:31.129Z,6.75
2019-05-16T02:38:05.455Z,6.72
2019-05-16T02:40:41.534Z,6.77
2019-05-16T02:43:15.382Z,6.85
2019-05-16T02:45:51.951Z,6.86
2019-05-16T02:48:25.086Z,6.84
2019-05-16T02:51:01.789Z,6.79
2019-05-16T02:53:34.840Z,6.73
2019-05-16T02:56:07.398Z,6.74
2019-05-16T02:58:44.840Z,6.82
2019-05-16T03:01:21.351Z,6.92
2019-05-16T03:03:55.482Z,7.11
2019-05-16T03:06:32.061Z,7.24
2019-05-16T03:09:10.907Z,7.30
2019-05-16T03:11:46.966Z,7.32
2019-05-16T03:14:24.406Z,7.27
2019-05-16T03:17:03.441Z,7.27
2019-05-16T03:19:41.786Z,7.35
2019-05-16T03:22:22.124Z,7.43
2019-05-16T03:25:01.267Z,7.43
2019-05-16T03:27:35.309Z,7.42
2019-05-16T03:30:07.961Z,7.42
2019-05-16T03:35:54.586Z,7.01
2019-05-16T03:38:30.863Z,6.89
2019-05-16T03:41:30.676Z,6.85
2019-05-16T03:44:03.842Z,6.89
2019-05-16T03:46:37.349Z,6.93
2019-05-16T03:49:11.491Z,7.03
2019-05-16T03:51:44.504Z,7.02
2019-05-16T03:54:17.089Z,7.06
2019-05-16T03:56:51.371Z,7.10
2019-05-16T03:59:24.051Z,7.16
2019-05-16T04:01:56.617Z,7.14
2019-05-16T04:04:30.897Z,7.16
2019-05-16T04:07:03.887Z,7.18
2019-05-16T04:09:36.445Z,7.20
2019-05-16T04:12:10.795Z,7.19
2019-05-16T04:14:43.718Z,7.18
2019-05-16T04:17:20.936Z,7.17
2019-05-16T04:19:54.392Z,7.20
2019-05-16T04:22:31.769Z,7.23
2019-05-16T04:25:05.319Z,7.26
2019-05-16T04:27:41.248Z,7.30
2019-05-16T04:30:17.464Z,7.31
2019-05-16T04:32:51.049Z,7.34
2019-05-16T04:35:23.893Z,7.39
2019-05-16T04:37:56.690Z,7.48
2019-05-16T04:40:31.171Z,7.55
2019-05-16T04:43:03.877Z,7.61
2019-05-16T04:45:36.467Z,7.75
2019-05-16T04:48:11.211Z,7.87
2019-05-16T04:50:44.075Z,8.00
2019-05-16T04:53:16.901Z,8.21
2019-05-16T04:55:51.627Z,8.37
2019-05-16T04:58:24.921Z,8.60
2019-05-16T05:00:57.837Z,8.69
2019-05-16T05:03:31.582Z,8.77
2019-05-16T05:06:04.550Z,8.82
2019-05-16T05:08:50.469Z,8.90
2019-05-16T05:11:31.843Z,8.99
2019-05-16T05:14:05.529Z,9.02
2019-05-16T05:16:41.106Z,9.08
2019-05-16T05:19:14.590Z,9.03
2019-05-16T05:21:47.166Z,9.05
2019-05-16T05:24:19.764Z,9.04
2019-05-16T05:26:52.461Z,9.02
2019-05-16T05:29:25.132Z,9.14
2019-05-16T05:32:03.489Z,9.14
2019-05-16T05:34:39.870Z,9.26
2019-05-16T05:37:12.784Z,9.26
2019-05-16T05:39:45.885Z,9.40
2019-05-16T05:42:19.896Z,9.44
2019-05-16T05:44:53.093Z,9.44
2019-05-16T05:47:30.498Z,9.52
2019-05-16T05:50:05.351Z,9.57
2019-05-16T05:52:40.824Z,9.64
2019-05-16T05:55:14.089Z,9.71
2019-05-16T05:57:46.777Z,9.82
2019-05-16T06:00:21.142Z,9.84
2019-05-16T06:02:53.988Z,9.91
2019-05-16T06:05:26.778Z,9.98
2019-05-16T06:08:00.283Z,10.01
2019-05-16T06:10:33.164Z,10.10
2019-05-16T06:13:05.773Z,10.23
2019-05-16T06:15:39.996Z,10.47
2019-05-16T06:18:12.642Z,10.75
2019-05-16T06:20:45.446Z,11.02
2019-05-16T06:23:20.587Z,11.26
2019-05-16T06:25:53.905Z,11.40
2019-05-16T06:28:26.483Z,11.43
2019-05-16T06:31:01.804Z,11.41
2019-05-16T06:33:35.107Z,11.40
2019-05-16T06:36:11.822Z,11.40
2019-05-16T06:38:44.810Z,11.44
2019-05-16T06:41:19.982Z,11.39
2019-05-16T06:43:53.344Z,11.42
2019-05-16T06:46:27.121Z,11.40
2019-05-16T06:48:59.740Z,11.29
2019-05-16T06:51:32.382Z,11.21
2019-05-16T06:54:05.058Z,11.07
2019-05-16T06:56:39.904Z,10.97
2019-05-16T06:59:14.699Z,10.93
2019-05-16T07:01:50.059Z,10.91
2019-05-16T07:04:26.298Z,10.84
2019-05-16T07:07:02.804Z,10.83
2019-05-16T07:09:36.043Z,10.83
2019-05-16T07:12:10.485Z,10.80
2019-05-16T07:14:46.425Z,10.78
2019-05-16T07:17:20.207Z,10.76
2019-05-16T07:19:53.048Z,10.74
2019-05-16T07:22:31.219Z,10.72
2019-05-16T07:25:04.767Z,10.70
2019-05-16T07:27:40.097Z,10.68
2019-05-16T07:30:19.791Z,10.70
2019-05-16T07:32:53.611Z,10.70
2019-05-16T07:35:31.869Z,10.72
2019-05-16T07:38:10.708Z,10.76
2019-05-16T07:40:51.172Z,10.78
2019-05-16T07:43:25.597Z,10.85
2019-05-16T07:46:00.359Z,10.88
2019-05-16T07:48:33.276Z,10.95
2019-05-16T07:51:05.803Z,11.04
2019-05-16T07:53:40.277Z,11.15
2019-05-16T07:56:14.031Z,11.17
2019-05-16T07:58:46.663Z,11.23
2019-05-16T08:01:20.040Z,11.18
2019-05-16T08:03:52.892Z,11.12
2019-05-16T08:06:26.259Z,11.08
2019-05-16T08:09:00.367Z,11.07
2019-05-16T08:11:33.009Z,11.03
2019-05-16T08:14:10.230Z,10.95
2019-05-16T08:16:44.472Z,10.91
2019-05-16T08:19:25.283Z,10.91
2019-05-16T08:22:01.054Z,10.93
2019-05-16T08:24:36.176Z,10.99
2019-05-16T08:27:12.078Z,11.08
2019-05-16T08:29:51.142Z,11.04
2019-05-16T08:32:26.233Z,11.01
2019-05-16T08:35:01.129Z,10.97
2019-05-16T08:37:42.534Z,10.94
2019-05-16T08:40:21.619Z,10.93
2019-05-16T08:42:54.323Z,10.95
2019-05-16T08:45:26.824Z,10.88
2019-05-16T08:48:00.238Z,10.79
2019-05-16T08:50:34.983Z,10.73
2019-05-16T08:53:11.893Z,10.79
2019-05-16T08:55:46.092Z,10.80
2019-05-16T08:58:22.405Z,10.90
2019-05-16T09:00:55.857Z,11.06
2019-05-16T09:03:32.083Z,11.14
2019-05-16T09:06:05.404Z,11.27
2019-05-16T09:08:38.071Z,11.50
2019-05-16T09:11:29.868Z,11.76
2019-05-16T09:14:11.829Z,11.88
2019-05-16T09:16:47.514Z,11.99
2019-05-16T09:19:22.594Z,12.14
2019-05-16T09:21:58.045Z,12.19
2019-05-16T09:24:31.025Z,12.37
2019-05-16T09:27:03.565Z,12.44
2019-05-16T09:29:36.979Z,12.53
2019-05-16T09:32:17.037Z,12.60
2019-05-16T09:34:57.952Z,12.64
2019-05-16T09:37:31.513Z,12.74
2019-05-16T09:40:06.981Z,12.86
2019-05-16T09:42:47.420Z,12.97
2019-05-16T09:45:21.902Z,13.13
2019-05-16T09:47:57.367Z,13.40
2019-05-16T09:50:30.958Z,13.63
2019-05-16T09:53:07.225Z,13.94
2019-05-16T09:55:40.364Z,14.13
2019-05-16T09:58:17.699Z,14.22
2019-05-16T10:00:51.651Z,14.43
2019-05-16T10:03:30.817Z,14.69
2019-05-16T10:06:07.708Z,14.66
2019-05-16T10:08:43.200Z,14.61
2019-05-16T10:11:18.451Z,14.56
2019-05-16T10:13:52.075Z,14.52
2019-05-16T10:16:30.436Z,14.82
2019-05-16T10:19:07.587Z,15.32
2019-05-16T10:21:41.809Z,15.96
2019-05-16T10:24:16.875Z,16.25
2019-05-16T10:26:53.942Z,16.73
2019-05-16T10:29:28.604Z,17.01
2019-05-16T10:32:01.193Z,16.84
2019-05-16T10:34:33.949Z,16.83
2019-05-16T10:37:07.302Z,16.56
2019-05-16T10:39:40.520Z,16.46
2019-05-16T10:42:24.988Z,16.20
2019-05-16T10:45:03.466Z,15.85
2019-05-16T10:47:37.117Z,15.87
2019-05-16T10:50:10.326Z,15.93
2019-05-16T10:52:42.841Z,16.12
2019-05-16T10:55:17.717Z,16.13
2019-05-16T10:57:52.493Z,16.17
2019-05-16T11:00:57.723Z,16.03
2019-05-16T11:03:48.842Z,16.05
2019-05-16T11:06:25.749Z,16.56
2019-05-16T11:09:01.513Z,17.02
2019-05-16T11:11:36.805Z,17.35
2019-05-16T11:14:11.161Z,17.81
2019-05-16T11:16:47.173Z,18.18
2019-05-16T11:19:24.434Z,17.76
2019-05-16T11:21:59.162Z,17.29
2019-05-16T11:24:33.429Z,17.11
2019-05-16T11:27:07.483Z,17.12
2019-05-16T11:29:40.396Z,17.16
2019-05-16T11:32:13.096Z,17.44
2019-05-16T11:34:47.933Z,17.61
2019-05-16T11:37:27.756Z,17.86
2019-05-16T11:40:02.404Z,17.72
2019-05-16T11:42:37.783Z,17.61
2019-05-16T11:45:16.425Z,17.57
2019-05-16T11:47:49.922Z,17.20
2019-05-16T11:50:23.966Z,17.08
2019-05-16T11:52:58.585Z,17.13
2019-05-16T11:55:35.023Z,17.33
2019-05-16T11:58:11.147Z,17.50
2019-05-16T12:00:44.370Z,17.78
2019-05-16T12:03:17.185Z,18.01
2019-05-16T12:05:49.897Z,18.18
2019-05-16T12:08:23.358Z,18.19
2019-05-16T12:10:55.921Z,17.96
2019-05-16T12:13:32.820Z,17.95
2019-05-16T12:16:07.592Z,18.19
2019-05-16T12:18:42.011Z,18.41
2019-05-16T12:21:17.857Z,18.35
2019-05-16T12:23:50.483Z,18.11
2019-05-16T12:26:28.214Z,17.83
2019-05-16T12:29:02.028Z,17.76
2019-05-16T12:31:37.148Z,17.74
2019-05-16T12:34:11.304Z,18.02
2019-05-16T12:36:47.258Z,18.92
2019-05-16T12:39:26.807Z,19.49
2019-05-16T12:42:08.421Z,19.59
2019-05-16T12:44:42.937Z,19.65
2019-05-16T12:47:16.637Z,19.50
2019-05-16T12:49:57.587Z,19.45
2019-05-16T12:52:34.055Z,19.75
2019-05-16T12:55:09.017Z,19.79
2019-05-16T12:57:43.743Z,19.45
2019-05-16T13:00:27.675Z,19.46
2019-05-16T13:03:02.692Z,19.58
2019-05-16T13:05:37.658Z,19.33
2019-05-16T13:08:12.640Z,18.99
2019-05-16T13:10:48.516Z,18.68
2019-05-16T13:13:22.891Z,18.48
2019-05-16T13:15:57.763Z,18.55
2019-05-16T13:18:32.016Z,18.85
2019-05-16T13:21:06.843Z,18.78
2019-05-16T13:23:46.741Z,18.48
2019-05-16T13:26:23.960Z,18.17
2019-05-16T13:28:59.490Z,17.97
2019-05-16T13:31:33.857Z,17.57
2019-05-16T13:34:07.749Z,17.17
2019-05-16T13:36:41.391Z,16.97
2019-05-16T13:39:17.139Z,16.67
2019-05-16T13:41:52.874Z,16.49
2019-05-16T13:44:27.634Z,16.41
2019-05-16T13:47:01.272Z,16.44
2019-05-16T13:49:38.665Z,16.38
2019-05-16T13:52:16.683Z,16.05
2019-05-16T13:54:49.403Z,15.65
2019-05-16T13:57:29.335Z,15.85
2019-05-16T14:00:03.880Z,16.17
2019-05-16T14:02:57.576Z,16.40
2019-05-16T14:05:32.758Z,16.65
2019-05-16T14:08:16.892Z,16.54
2019-05-16T14:11:02.631Z,16.45
2019-05-16T14:13:42.872Z,16.26
2019-05-16T14:16:33.753Z,16.21
2019-05-16T14:19:33.320Z,16.46
2019-05-16T14:22:07.647Z,16.70
2019-05-16T14:24:43.595Z,16.47
2019-05-16T14:27:17.951Z,16.40
2019-05-16T14:29:51.294Z,16.17
2019-05-16T14:32:25.219Z,15.96
2019-05-16T14:34:58.951Z,15.73
2019-05-16T14:37:31.871Z,15.61
2019-05-16T14:40:07.934Z,15.31
2019-05-16T14:42:40.699Z,15.05
2019-05-16T14:45:22.004Z,14.92
2019-05-16T14:47:57.851Z,14.79
2019-05-16T14:50:31.346Z,14.70
2019-05-16T14:53:09.063Z,14.71
2019-05-16T14:56:52.729Z,14.55
2019-05-16T14:59:36.367Z,14.51
2019-05-16T15:02:23.799Z,14.46
2019-05-16T15:05:30.458Z,14.44
2019-05-16T15:08:08.616Z,14.43
2019-05-16T15:10:46.744Z,14.40
2019-05-16T15:13:19.724Z,14.28
2019-05-16T15:15:56.946Z,14.18
2019-05-16T15:18:29.771Z,14.01
2019-05-16T15:21:08.492Z,13.84
2019-05-16T15:23:45.489Z,13.80
2019-05-16T15:26:27.289Z,13.80
2019-05-16T15:29:03.154Z,13.84
2019-05-16T15:31:39.580Z,14.00
2019-05-16T15:34:16.457Z,14.06
2019-05-16T15:36:50.063Z,14.16
2019-05-16T15:39:24.135Z,14.27
2019-05-16T15:42:00.376Z,14.40
2019-05-16T15:44:32.927Z,14.34
2019-05-16T15:47:08.315Z,14.48
2019-05-16T15:49:43.026Z,14.63
2019-05-16T15:52:17.958Z,14.70
2019-05-16T15:55:18.726Z,14.71
2019-05-16T15:58:07.481Z,14.83
2019-05-16T16:00:51.942Z,15.05
2019-05-16T16:03:37.970Z,15.05
2019-05-16T16:06:22.414Z,14.98
2019-05-16T16:09:10.884Z,14.80
2019-05-16T16:11:44.896Z,14.70
2019-05-16T16:14:17.534Z,14.63
2019-05-16T16:16:53.659Z,14.58
2019-05-16T16:19:28.214Z,14.51
2019-05-16T16:22:02.863Z,14.41
2019-05-16T16:24:35.456Z,14.37
2019-05-16T16:27:12.577Z,14.32
2019-05-16T16:29:48.097Z,14.29
2019-05-16T16:32:21.400Z,14.30
2019-05-16T16:34:57.344Z,14.27
2019-05-16T16:37:30.323Z,14.22
2019-05-16T16:40:09.981Z,14.21
2019-05-16T16:42:47.455Z,14.17
2019-05-16T16:45:31.616Z,14.06
2019-05-16T16:48:04.382Z,14.01
2019-05-16T16:50:41.856Z,13.89
2019-05-16T16:53:17.607Z,13.75
2019-05-16T16:55:51.040Z,13.71
2019-05-16T16:58:26.420Z,13.65
2019-05-16T17:01:02.545Z,13.51
2019-05-16T17:03:36.397Z,13.43
2019-05-16T17:06:17.706Z,13.42
2019-05-16T17:08:58.522Z,13.25
2019-05-16T17:11:31.487Z,13.13
2019-05-16T17:14:06.826Z,13.04
2019-05-16T17:16:40.478Z,12.96
2019-05-16T17:19:14.550Z,12.86
2019-05-16T17:22:02.051Z,12.87
2019-05-16T17:24:43.997Z,12.87
2019-05-16T17:27:20.661Z,12.86
2019-05-16T17:29:53.572Z,12.83
2019-05-16T17:32:28.095Z,12.83
2019-05-16T17:35:03.572Z,12.82
2019-05-16T17:37:37.633Z,12.78
2019-05-16T17:40:17.599Z,12.70
2019-05-16T17:43:01.194Z,12.67
2019-05-16T17:45:34.046Z,12.67
2019-05-16T17:48:07.498Z,12.69
2019-05-16T17:50:46.535Z,12.65
2019-05-16T17:53:21.558Z,12.56
2019-05-16T17:55:58.953Z,12.50
2019-05-16T17:58:41.745Z,12.43
2019-05-16T18:01:17.519Z,12.39
2019-05-16T18:03:50.620Z,12.34
2019-05-16T18:06:27.162Z,12.31
2019-05-16T18:09:17.692Z,12.29
2019-05-16T18:12:10.011Z,12.31
2019-05-16T18:15:17.419Z,12.25
2019-05-16T18:18:07.339Z,12.23
2019-05-16T18:20:55.918Z,12.03
2019-05-16T18:23:36.876Z,11.76
2019-05-16T18:26:13.007Z,11.56
2019-05-16T18:28:49.018Z,11.44
2019-05-16T18:31:23.037Z,11.45
2019-05-16T18:34:09.547Z,11.46
2019-05-16T18:36:46.672Z,11.44
2019-05-16T18:39:22.216Z,11.47
2019-05-16T18:42:00.641Z,11.40
2019-05-16T18:44:36.759Z,11.33
2019-05-16T18:47:17.410Z,11.32
2019-05-16T18:49:51.263Z,11.32
2019-05-16T18:52:26.481Z,11.32
2019-05-16T18:55:04.094Z,11.30
2019-05-16T18:57:39.373Z,11.29
2019-05-16T19:00:17.794Z,11.26
2019-05-16T19:02:51.741Z,11.25
2019-05-16T19:05:26.498Z,11.29
2019-05-16T19:08:09.102Z,11.26
2019-05-16T19:10:43.409Z,11.12
2019-05-16T19:13:17.860Z,11.06
2019-05-16T19:15:53.322Z,11.04
2019-05-16T19:18:30.353Z,11.00
2019-05-16T19:21:12.600Z,11.00
2019-05-16T19:23:49.234Z,10.98
2019-05-16T19:26:27.300Z,10.94
2019-05-16T19:29:06.473Z,10.88
2019-05-16T19:31:40.564Z,10.86
2019-05-16T19:34:16.276Z,10.84
2019-05-16T19:36:49.156Z,10.83
2019-05-16T19:39:26.037Z,10.82
2019-05-16T19:42:06.504Z,10.81
2019-05-16T19:44:40.095Z,10.84
2019-05-16T19:47:13.768Z,10.79
2019-05-16T19:49:49.356Z,10.71
2019-05-16T19:52:23.003Z,10.65
2019-05-16T19:54:59.572Z,10.64
2019-05-16T19:57:43.387Z,10.57
2019-05-16T20:00:19.887Z,10.47
2019-05-16T20:02:52.686Z,10.41
2019-05-16T20:05:26.672Z,10.38
2019-05-16T20:07:59.448Z,10.25
2019-05-16T20:10:32.932Z,10.14
2019-05-16T20:13:08.293Z,10.04
2019-05-16T20:15:41.722Z,9.99
2019-05-16T20:18:24.388Z,9.89
2019-05-16T20:20:57.654Z,9.79
2019-05-16T20:23:31.153Z,9.77
2019-05-16T20:26:08.006Z,9.72
2019-05-16T20:28:47.446Z,9.67
2019-05-16T20:31:22.283Z,9.61
2019-05-16T20:33:57.114Z,9.55
2019-05-16T20:36:31.444Z,9.49
2019-05-16T20:39:08.401Z,9.45
2019-05-16T20:41:41.310Z,9.43
2019-05-16T20:44:17.246Z,9.40
2019-05-16T20:46:50.148Z,9.37
2019-05-16T20:49:24.141Z,9.35
2019-05-16T20:51:58.618Z,9.33
2019-05-16T20:54:37.660Z,9.32
2019-05-16T20:57:17.105Z,9.32
2019-05-16T20:59:51.569Z,9.33
2019-05-16T21:02:27.005Z,9.37
2019-05-16T21:05:00.394Z,9.32
2019-05-16T21:07:37.168Z,9.27
2019-05-16T21:10:16.792Z,9.22
2019-05-16T21:12:51.222Z,9.17
2019-05-16T21:15:26.342Z,9.13
2019-05-16T21:17:59.880Z,9.11
2019-05-16T21:20:34.698Z,9.10
2019-05-16T21:23:09.671Z,9.08
2019-05-16T21:25:42.420Z,9.06
2019-05-16T21:28:19.723Z,9.06
2019-05-16T21:30:53.741Z,9.06
2019-05-16T21:33:27.432Z,9.12
2019-05-16T21:36:01.265Z,9.10
2019-05-16T21:38:36.524Z,9.04
2019-05-16T21:41:11.544Z,9.06
2019-05-16T21:43:46.952Z,9.03
2019-05-16T21:46:27.278Z,8.98
2019-05-16T21:49:01.026Z,9.02
2019-05-16T21:51:34.227Z,8.96
2019-05-16T21:54:18.196Z,8.99
2019-05-16T21:56:57.147Z,8.93
2019-05-16T21:59:31.099Z,8.88
2019-05-16T22:02:06.063Z,8.84
2019-05-16T22:04:39.198Z,8.80
2019-05-16T22:07:11.822Z,8.78
2019-05-16T22:09:47.061Z,8.76
2019-05-16T22:12:20.021Z,8.76
2019-05-16T22:14:56.972Z,8.82
2019-05-16T22:17:30.789Z,8.80
2019-05-16T22:20:04.012Z,8.84
2019-05-16T22:22:38.149Z,8.81
2019-05-16T22:25:16.764Z,8.85
2019-05-16T22:27:50.159Z,8.81
2019-05-16T22:30:23.129Z,8.79
2019-05-16T22:32:56.651Z,8.76
2019-05-16T22:35:30.469Z,8.75
2019-05-16T22:38:03.601Z,8.82
2019-05-16T22:40:39.464Z,8.79
2019-05-16T22:43:17.218Z,8.75
2019-05-16T22:45:52.007Z,8.72
2019-05-16T22:48:26.706Z,8.71
2019-05-16T22:50:59.794Z,8.70
2019-05-16T22:53:33.308Z,8.71
2019-05-16T22:56:07.404Z,8.71
2019-05-16T22:58:41.091Z,8.72
2019-05-16T23:01:17.586Z,8.73
2019-05-16T23:03:51.643Z,8.73
2019-05-16T23:06:26.914Z,8.74
2019-05-16T23:09:00.327Z,8.76
2019-05-16T23:11:33.290Z,8.82
2019-05-16T23:14:10.840Z,8.80
2019-05-16T23:16:47.247Z,8.79
2019-05-16T23:19:21.718Z,8.80
2019-05-16T23:21:56.699Z,8.80
2019-05-16T23:24:31.338Z,8.81
2019-05-16T23:27:06.953Z,8.88
2019-05-16T23:29:40.742Z,8.95
2019-05-16T23:32:15.313Z,8.93
2019-05-16T23:34:48.125Z,8.89
2019-05-16T23:37:23.304Z,8.88
2019-05-16T23:39:57.555Z,8.87
2019-05-16T23:42:30.045Z,8.87
2019-05-16T23:45:08.332Z,8.86
2019-05-16T23:47:43.197Z,8.84
2019-05-16T23:50:21.637Z,8.91
2019-05-16T23:52:56.218Z,8.85
2019-05-16T23:55:30.211Z,8.81
2019-05-16T23:58:06.687Z,8.79
